createdAt,value
2023-02-17T00:01:19.690Z,46.50
2023-02-17T00:03:49.428Z,46.50
2023-02-17T00:06:16.607Z,46.50
2023-02-17T00:08:43.302Z,46.50
2023-02-17T00:11:09.959Z,46.50
2023-02-17T00:13:36.676Z,46.40
2023-02-17T00:16:07.700Z,46.60
2023-02-17T00:18:34.602Z,46.60
2023-02-17T00:21:01.282Z,46.50
2023-02-17T00:23:27.970Z,46.70
2023-02-17T00:25:54.651Z,46.50
2023-02-17T00:28:21.534Z,46.50
2023-02-17T00:30:48.264Z,46.40
2023-02-17T00:33:14.973Z,46.40
2023-02-17T00:35:41.731Z,46.50
2023-02-17T00:38:08.401Z,46.40
2023-02-17T00:40:35.084Z,46.40
2023-02-17T00:43:01.770Z,46.40
2023-02-17T00:45:28.474Z,46.40
2023-02-17T00:47:55.222Z,47.00
2023-02-17T00:50:21.897Z,46.40
2023-02-17T00:52:48.558Z,46.40
2023-02-17T00:55:15.326Z,46.40
2023-02-17T00:57:42.006Z,46.40
2023-02-17T01:00:09.365Z,46.40
2023-02-17T01:02:36.026Z,46.40
2023-02-17T01:05:02.809Z,46.50
2023-02-17T01:07:29.585Z,46.50
2023-02-17T01:09:56.310Z,46.40
2023-02-17T01:12:29.312Z,46.40
2023-02-17T01:15:02.298Z,46.40
2023-02-17T01:17:31.999Z,46.40
2023-02-17T01:19:58.763Z,46.40
2023-02-17T01:22:25.486Z,46.40
2023-02-17T01:24:52.209Z,46.50
2023-02-17T01:27:18.865Z,46.40
2023-02-17T01:29:45.974Z,46.40
2023-02-17T01:32:12.710Z,46.50
2023-02-17T01:34:45.429Z,46.40
2023-02-17T01:37:12.129Z,46.40
2023-02-17T01:39:39.275Z,46.40
2023-02-17T01:42:06.001Z,46.50
2023-02-17T01:44:32.733Z,46.30
2023-02-17T01:47:05.548Z,46.50
2023-02-17T01:49:39.550Z,46.40
2023-02-17T01:52:06.302Z,46.30
2023-02-17T01:54:37.874Z,46.30
2023-02-17T01:57:04.553Z,46.40
2023-02-17T01:59:31.351Z,46.40
2023-02-17T02:01:58.824Z,46.40
2023-02-17T02:04:35.433Z,46.40
2023-02-17T02:07:05.828Z,46.40
2023-02-17T02:09:36.658Z,46.40
2023-02-17T02:12:03.411Z,46.40
2023-02-17T02:14:36.308Z,46.40
2023-02-17T02:17:08.162Z,46.50
2023-02-17T02:19:39.112Z,46.40
2023-02-17T02:22:25.615Z,46.40
2023-02-17T02:24:58.335Z,46.40
2023-02-17T02:27:45.246Z,46.50
2023-02-17T02:30:27.550Z,46.50
2023-02-17T02:32:56.970Z,46.40
2023-02-17T02:35:42.159Z,46.50
2023-02-17T02:38:12.089Z,46.50
2023-02-17T02:40:46.898Z,46.40
2023-02-17T02:43:13.654Z,46.40
2023-02-17T02:45:40.354Z,46.30
2023-02-17T02:48:07.246Z,46.40
2023-02-17T02:50:33.937Z,46.30
2023-02-17T02:53:03.674Z,46.30
2023-02-17T02:55:37.576Z,46.30
2023-02-17T02:58:13.547Z,46.30
2023-02-17T03:00:40.265Z,46.40
2023-02-17T03:03:16.053Z,46.40
2023-02-17T03:05:56.323Z,46.50
2023-02-17T03:08:22.984Z,46.50
2023-02-17T03:10:51.116Z,47.10
2023-02-17T03:13:18.120Z,46.40
2023-02-17T03:15:44.843Z,46.40
2023-02-17T03:18:11.505Z,46.30
2023-02-17T03:20:46.246Z,46.40
2023-02-17T03:23:12.925Z,46.40
2023-02-17T03:25:39.674Z,46.40
2023-02-17T03:28:06.374Z,46.50
2023-02-17T03:30:33.123Z,46.30
2023-02-17T03:33:02.866Z,46.40
2023-02-17T03:35:29.554Z,46.40
2023-02-17T03:37:56.237Z,46.40
2023-02-17T03:40:22.952Z,46.40
2023-02-17T03:42:49.698Z,46.40
2023-02-17T03:45:16.495Z,46.40
2023-02-17T03:47:49.261Z,46.40
2023-02-17T03:50:19.030Z,46.30
2023-02-17T03:52:46.735Z,46.40
2023-02-17T03:55:14.022Z,46.30
2023-02-17T03:58:12.444Z,46.40
2023-02-17T04:00:40.861Z,46.30
2023-02-17T04:03:08.216Z,46.40
2023-02-17T04:05:35.768Z,46.40
2023-02-17T04:08:02.924Z,46.40
2023-02-17T04:10:30.963Z,46.40
2023-02-17T04:12:58.189Z,46.30
2023-02-17T04:15:25.294Z,46.30
2023-02-17T04:17:52.594Z,46.40
2023-02-17T04:20:20.335Z,46.30
2023-02-17T04:22:47.624Z,46.40
2023-02-17T04:25:15.252Z,46.40
2023-02-17T04:27:42.199Z,46.40
2023-02-17T04:30:12.017Z,46.50
2023-02-17T04:32:39.430Z,46.40
2023-02-17T04:35:06.931Z,46.40
2023-02-17T04:37:34.042Z,46.40
2023-02-17T04:40:00.819Z,46.60
2023-02-17T04:42:27.724Z,46.40
2023-02-17T04:44:55.477Z,46.50
2023-02-17T04:47:23.008Z,46.50
2023-02-17T04:50:00.634Z,46.50
2023-02-17T04:52:28.592Z,46.40
2023-02-17T04:54:55.549Z,46.50
2023-02-17T04:57:22.364Z,46.40
2023-02-17T04:59:49.754Z,46.40
2023-02-17T05:02:17.408Z,46.40
2023-02-17T05:04:45.953Z,46.40
2023-02-17T05:07:13.223Z,46.40
2023-02-17T05:09:41.241Z,46.50
2023-02-17T05:12:08.343Z,46.40
2023-02-17T05:14:35.018Z,46.40
2023-02-17T05:17:01.765Z,46.40
2023-02-17T05:19:28.428Z,46.40
2023-02-17T05:21:55.100Z,46.40
2023-02-17T05:24:21.798Z,46.50
2023-02-17T05:26:48.515Z,46.50
2023-02-17T05:29:15.178Z,46.50
2023-02-17T05:31:41.943Z,46.50
2023-02-17T05:34:08.647Z,46.60
2023-02-17T05:36:35.354Z,46.50
2023-02-17T05:39:02.150Z,46.50
2023-02-17T05:41:28.913Z,46.60
2023-02-17T05:43:55.565Z,46.60
2023-02-17T05:46:23.141Z,46.60
2023-02-17T05:48:49.917Z,46.60
2023-02-17T05:51:19.558Z,46.70
2023-02-17T05:53:46.263Z,46.70
2023-02-17T05:56:12.957Z,46.80
2023-02-17T05:58:39.642Z,46.80
2023-02-17T06:01:09.846Z,46.40
2023-02-17T06:03:36.583Z,46.90
2023-02-17T06:06:03.860Z,46.80
2023-02-17T06:08:30.719Z,46.80
2023-02-17T06:10:57.410Z,46.70
2023-02-17T06:13:24.208Z,47.70
2023-02-17T06:15:50.966Z,47.80
2023-02-17T06:18:17.660Z,47.40
2023-02-17T06:20:44.351Z,48.00
2023-02-17T06:23:11.666Z,48.20
2023-02-17T06:25:38.414Z,48.20
2023-02-17T06:28:05.116Z,48.00
2023-02-17T06:30:38.001Z,48.00
2023-02-17T06:33:04.771Z,48.00
2023-02-17T06:35:31.433Z,47.70
2023-02-17T06:37:58.130Z,47.80
2023-02-17T06:40:24.846Z,47.70
2023-02-17T06:42:51.524Z,47.70
2023-02-17T06:45:20.140Z,47.70
2023-02-17T06:47:46.885Z,47.60
2023-02-17T06:50:13.515Z,47.70
2023-02-17T06:52:40.179Z,47.60
2023-02-17T06:55:07.113Z,47.60
2023-02-17T06:57:33.818Z,47.50
2023-02-17T07:00:07.072Z,47.50
2023-02-17T07:02:40.159Z,47.60
2023-02-17T07:05:07.256Z,47.70
2023-02-17T07:07:40.154Z,47.50
2023-02-17T07:10:10.193Z,47.40
2023-02-17T07:12:36.901Z,47.50
2023-02-17T07:15:03.728Z,47.40
2023-02-17T07:17:30.459Z,47.40
2023-02-17T07:19:57.214Z,47.50
2023-02-17T07:22:25.563Z,47.40
2023-02-17T07:24:52.234Z,47.40
2023-02-17T07:27:18.938Z,47.40
2023-02-17T07:29:48.620Z,47.30
2023-02-17T07:32:18.388Z,47.40
2023-02-17T07:34:45.073Z,47.30
2023-02-17T07:37:11.769Z,47.30
2023-02-17T07:39:41.557Z,47.10
2023-02-17T07:42:09.997Z,47.30
2023-02-17T07:44:36.632Z,47.20
2023-02-17T07:47:03.354Z,47.10
2023-02-17T07:49:36.192Z,47.80
2023-02-17T07:52:05.146Z,47.60
2023-02-17T07:54:31.997Z,47.00
2023-02-17T07:56:58.658Z,47.00
2023-02-17T07:59:25.360Z,46.90
2023-02-17T08:01:52.127Z,46.90
2023-02-17T08:04:18.872Z,46.90
2023-02-17T08:06:45.579Z,46.90
2023-02-17T08:09:30.872Z,46.90
2023-02-17T08:12:16.339Z,47.50
2023-02-17T08:14:46.190Z,46.80
2023-02-17T08:17:12.964Z,46.80
2023-02-17T08:19:48.043Z,46.90
2023-02-17T08:22:21.754Z,46.90
2023-02-17T08:24:48.470Z,46.90
2023-02-17T08:27:15.251Z,47.50
2023-02-17T08:29:47.981Z,46.90
2023-02-17T08:32:15.429Z,46.80
2023-02-17T08:34:42.146Z,46.80
2023-02-17T08:37:08.980Z,46.90
2023-02-17T08:39:35.752Z,47.50
2023-02-17T08:42:04.957Z,46.80
2023-02-17T08:44:31.978Z,46.80
2023-02-17T08:46:58.755Z,46.80
2023-02-17T08:49:25.585Z,46.90
2023-02-17T08:51:58.794Z,46.90
2023-02-17T08:54:25.505Z,46.90
2023-02-17T08:56:52.252Z,46.90
2023-02-17T08:59:18.949Z,46.90
2023-02-17T09:01:45.680Z,46.80
2023-02-17T09:04:12.806Z,46.90
2023-02-17T09:06:40.978Z,46.90
2023-02-17T09:09:08.113Z,46.90
2023-02-17T09:11:35.035Z,47.60
2023-02-17T09:14:02.633Z,46.90
2023-02-17T09:16:29.453Z,47.60
2023-02-17T09:18:56.229Z,46.90
2023-02-17T09:21:22.970Z,46.90
2023-02-17T09:23:49.689Z,46.90
2023-02-17T09:26:16.823Z,46.80
2023-02-17T09:28:49.764Z,46.80
2023-02-17T09:31:21.133Z,46.90
2023-02-17T09:33:47.958Z,46.90
2023-02-17T09:36:15.251Z,46.80
2023-02-17T09:38:42.084Z,46.90
2023-02-17T09:41:14.777Z,46.90
2023-02-17T09:43:41.511Z,46.90
2023-02-17T09:46:14.863Z,46.90
2023-02-17T09:48:41.554Z,46.90
2023-02-17T09:51:14.814Z,46.80
2023-02-17T09:53:43.070Z,46.90
2023-02-17T09:56:10.964Z,46.90
2023-02-17T09:58:42.265Z,46.90
2023-02-17T10:01:15.830Z,46.90
2023-02-17T10:03:43.570Z,46.90
2023-02-17T10:06:15.097Z,46.80
2023-02-17T10:08:59.525Z,46.90
2023-02-17T10:11:26.386Z,46.90
2023-02-17T10:13:53.160Z,46.90
2023-02-17T10:16:26.404Z,46.80
2023-02-17T10:19:00.319Z,46.80
2023-02-17T10:21:28.167Z,46.80
2023-02-17T10:23:54.901Z,46.80
2023-02-17T10:26:27.704Z,46.80
2023-02-17T10:28:57.508Z,46.80
2023-02-17T10:31:43.151Z,46.80
2023-02-17T10:34:22.504Z,46.80
2023-02-17T10:36:52.395Z,46.80
2023-02-17T10:39:22.143Z,47.40
2023-02-17T10:41:48.826Z,46.80
2023-02-17T10:44:17.053Z,46.80
2023-02-17T10:46:43.843Z,46.70
2023-02-17T10:49:14.839Z,46.80
2023-02-17T10:51:41.555Z,46.70
2023-02-17T10:54:16.731Z,47.30
2023-02-17T10:56:47.331Z,46.80
2023-02-17T10:59:23.178Z,46.70
2023-02-17T11:01:49.920Z,46.70
2023-02-17T11:04:16.696Z,46.70
2023-02-17T11:06:52.883Z,46.70
2023-02-17T11:09:28.600Z,46.60
2023-02-17T11:11:58.735Z,46.60
2023-02-17T11:14:29.835Z,46.60
2023-02-17T11:16:59.893Z,46.70
2023-02-17T11:19:34.551Z,46.60
2023-02-17T11:22:04.460Z,46.60
2023-02-17T11:24:31.770Z,46.70
2023-02-17T11:27:01.535Z,46.70
2023-02-17T11:29:28.596Z,46.70
2023-02-17T11:32:08.466Z,46.80
2023-02-17T11:34:36.223Z,46.70
2023-02-17T11:37:09.157Z,46.70
2023-02-17T11:39:39.500Z,46.70
2023-02-17T11:42:22.194Z,46.70
2023-02-17T11:44:49.021Z,46.70
2023-02-17T11:47:29.503Z,46.70
2023-02-17T11:49:56.235Z,46.80
2023-02-17T11:52:42.926Z,46.70
2023-02-17T11:55:18.458Z,46.80
2023-02-17T11:57:46.433Z,46.60
2023-02-17T12:00:19.841Z,46.80
2023-02-17T12:02:52.160Z,46.80
2023-02-17T12:05:24.914Z,46.80
2023-02-17T12:08:00.833Z,46.70
2023-02-17T12:10:42.851Z,46.70
2023-02-17T12:13:29.511Z,46.60
2023-02-17T12:16:02.360Z,46.70
2023-02-17T12:18:44.446Z,46.80
2023-02-17T12:21:11.127Z,46.60
2023-02-17T12:23:56.480Z,46.70
2023-02-17T12:26:23.180Z,46.80
2023-02-17T12:29:00.002Z,46.80
2023-02-17T12:31:42.126Z,46.80
2023-02-17T12:34:35.325Z,46.70
2023-02-17T12:37:02.489Z,46.80
2023-02-17T12:39:29.242Z,46.90
2023-02-17T12:42:07.761Z,46.90
2023-02-17T12:44:35.407Z,46.90
2023-02-17T12:47:09.882Z,46.90
2023-02-17T12:49:56.891Z,46.90
2023-02-17T12:52:33.450Z,47.00
2023-02-17T12:55:05.485Z,46.90
2023-02-17T12:57:49.072Z,47.10
2023-02-17T13:00:17.788Z,47.00
2023-02-17T13:02:44.931Z,46.90
2023-02-17T13:05:22.383Z,47.00
2023-02-17T13:07:51.286Z,47.00
2023-02-17T13:10:19.518Z,46.90
2023-02-17T13:12:55.235Z,46.90
2023-02-17T13:15:26.384Z,47.00
2023-02-17T13:18:03.530Z,47.00
2023-02-17T13:20:45.707Z,46.70
2023-02-17T13:23:20.515Z,46.90
2023-02-17T13:25:47.228Z,46.90
2023-02-17T13:28:19.981Z,46.90
2023-02-17T13:30:48.304Z,47.00
2023-02-17T13:33:15.039Z,47.00
2023-02-17T13:35:44.815Z,47.00
2023-02-17T13:38:11.567Z,47.00
2023-02-17T13:40:39.158Z,47.00
2023-02-17T13:43:09.830Z,47.00
2023-02-17T13:46:00.025Z,47.10
2023-02-17T13:48:30.864Z,47.10
2023-02-17T13:50:59.277Z,47.10
2023-02-17T13:53:30.685Z,47.10
2023-02-17T13:55:58.565Z,47.00
2023-02-17T13:58:27.968Z,47.10
2023-02-17T14:00:55.088Z,47.00
2023-02-17T14:03:24.647Z,47.00
2023-02-17T14:05:52.232Z,47.00
2023-02-17T14:08:34.383Z,47.00
2023-02-17T14:11:11.305Z,47.10
2023-02-17T14:13:38.404Z,47.00
2023-02-17T14:16:08.786Z,47.00
2023-02-17T14:18:39.535Z,47.00
2023-02-17T14:21:06.654Z,47.10
2023-02-17T14:23:40.431Z,47.00
2023-02-17T14:26:11.402Z,47.00
2023-02-17T14:28:38.056Z,47.00
2023-02-17T14:31:08.856Z,47.00
2023-02-17T14:33:35.698Z,47.10
2023-02-17T14:36:04.404Z,46.90
2023-02-17T14:38:37.261Z,47.00
2023-02-17T14:41:04.748Z,47.00
2023-02-17T14:43:31.630Z,47.00
2023-02-17T14:45:58.222Z,47.10
2023-02-17T14:48:27.749Z,47.00
2023-02-17T14:50:56.736Z,47.00
2023-02-17T14:53:23.375Z,47.10
2023-02-17T14:56:10.118Z,47.10
2023-02-17T14:58:36.779Z,47.00
2023-02-17T15:01:03.468Z,47.10
2023-02-17T15:03:30.142Z,47.10
2023-02-17T15:05:57.147Z,47.10
2023-02-17T15:08:32.171Z,47.00
2023-02-17T15:10:59.045Z,47.10
2023-02-17T15:13:26.553Z,47.10
2023-02-17T15:15:53.333Z,47.10
2023-02-17T15:18:20.597Z,47.10
2023-02-17T15:20:48.098Z,47.70
2023-02-17T15:23:18.594Z,47.00
2023-02-17T15:25:45.296Z,47.10
2023-02-17T15:28:15.658Z,47.10
2023-02-17T15:30:42.405Z,47.10
2023-02-17T15:33:12.356Z,47.10
2023-02-17T15:35:39.369Z,47.10
2023-02-17T15:38:06.109Z,47.10
2023-02-17T15:40:33.524Z,47.10
2023-02-17T15:43:06.122Z,47.10
2023-02-17T15:45:33.004Z,47.10
2023-02-17T15:48:03.519Z,47.00
2023-02-17T15:50:30.396Z,47.10
2023-02-17T15:52:57.038Z,47.10
2023-02-17T15:55:23.753Z,47.10
2023-02-17T15:57:50.999Z,47.10
2023-02-17T16:00:19.136Z,47.20
2023-02-17T16:02:45.882Z,47.30
2023-02-17T16:05:13.001Z,47.50
2023-02-17T16:07:39.988Z,47.30
2023-02-17T16:10:07.826Z,47.50
2023-02-17T16:12:34.435Z,47.50
2023-02-17T16:15:01.049Z,47.50
2023-02-17T16:17:27.706Z,47.50
2023-02-17T16:19:54.392Z,47.50
2023-02-17T16:22:21.001Z,47.50
2023-02-17T16:24:47.577Z,47.60
2023-02-17T16:27:15.000Z,47.60
2023-02-17T16:29:41.826Z,47.70
2023-02-17T16:32:10.547Z,47.60
2023-02-17T16:34:37.282Z,47.70
2023-02-17T16:37:04.201Z,47.60
2023-02-17T16:39:30.840Z,47.80
2023-02-17T16:41:57.435Z,47.60
2023-02-17T16:44:24.144Z,47.60
2023-02-17T16:46:52.201Z,47.90
2023-02-17T16:49:19.973Z,47.90
2023-02-17T16:51:46.729Z,47.90
2023-02-17T16:54:13.442Z,47.90
2023-02-17T16:56:42.014Z,47.80
2023-02-17T16:59:12.737Z,47.80
2023-02-17T17:01:39.365Z,48.00
2023-02-17T17:04:07.126Z,47.80
2023-02-17T17:06:33.752Z,47.90
2023-02-17T17:09:00.356Z,47.10
2023-02-17T17:11:28.448Z,48.40
2023-02-17T17:13:55.321Z,47.90
2023-02-17T17:16:23.035Z,47.90
2023-02-17T17:18:49.680Z,48.00
2023-02-17T17:21:16.436Z,48.00
2023-02-17T17:23:43.076Z,47.90
2023-02-17T17:26:33.081Z,47.90
2023-02-17T17:28:59.697Z,47.80
2023-02-17T17:31:26.601Z,47.80
2023-02-17T17:33:53.655Z,48.00
2023-02-17T17:36:20.287Z,47.90
2023-02-17T17:38:46.868Z,48.00
2023-02-17T17:41:13.630Z,48.10
2023-02-17T17:43:40.357Z,48.10
2023-02-17T17:46:15.799Z,48.10
2023-02-17T17:48:42.649Z,48.20
2023-02-17T17:51:10.253Z,48.40
2023-02-17T17:53:36.961Z,48.50
2023-02-17T17:56:03.688Z,48.80
2023-02-17T17:58:31.546Z,48.90
2023-02-17T18:00:59.142Z,49.20
2023-02-17T18:03:25.820Z,49.20
2023-02-17T18:05:52.514Z,49.40
2023-02-17T18:08:19.185Z,49.40
2023-02-17T18:10:45.871Z,49.40
2023-02-17T18:13:16.458Z,49.70
2023-02-17T18:15:43.229Z,49.50
2023-02-17T18:18:10.928Z,49.60
2023-02-17T18:20:37.639Z,49.60
2023-02-17T18:23:05.437Z,49.60
2023-02-17T18:25:32.192Z,49.80
2023-02-17T18:27:58.857Z,49.70
2023-02-17T18:30:27.257Z,49.70
2023-02-17T18:32:54.405Z,49.80
2023-02-17T18:35:21.252Z,49.80
2023-02-17T18:37:50.896Z,49.90
2023-02-17T18:40:18.259Z,50.00
2023-02-17T18:42:48.420Z,50.20
2023-02-17T18:45:15.411Z,50.00
2023-02-17T18:47:42.984Z,50.10
2023-02-17T18:50:11.400Z,50.40
2023-02-17T18:52:38.534Z,50.20
2023-02-17T18:55:05.736Z,50.40
2023-02-17T18:57:32.625Z,50.40
2023-02-17T19:00:06.213Z,50.20
2023-02-17T19:02:39.647Z,50.30
2023-02-17T19:05:06.835Z,50.60
2023-02-17T19:07:33.555Z,50.60
2023-02-17T19:10:00.318Z,50.60
2023-02-17T19:12:27.171Z,50.50
2023-02-17T19:14:56.052Z,50.60
2023-02-17T19:17:23.295Z,50.70
2023-02-17T19:19:50.048Z,51.20
2023-02-17T19:22:16.804Z,51.00
2023-02-17T19:24:43.659Z,50.50
2023-02-17T19:27:10.567Z,51.30
2023-02-17T19:29:37.426Z,50.90
2023-02-17T19:32:04.521Z,51.40
2023-02-17T19:34:31.542Z,50.80
2023-02-17T19:36:58.488Z,50.90
2023-02-17T19:39:25.147Z,50.90
2023-02-17T19:41:51.869Z,51.00
2023-02-17T19:44:18.608Z,51.00
2023-02-17T19:46:45.342Z,51.00
2023-02-17T19:49:12.035Z,51.10
2023-02-17T19:51:38.759Z,50.90
2023-02-17T19:54:05.449Z,51.20
2023-02-17T19:56:32.622Z,51.40
2023-02-17T19:58:59.403Z,51.30
2023-02-17T20:01:29.991Z,51.40
2023-02-17T20:03:56.882Z,51.60
2023-02-17T20:06:27.772Z,51.50
2023-02-17T20:08:58.446Z,51.50
2023-02-17T20:11:25.166Z,51.50
2023-02-17T20:13:51.972Z,51.50
2023-02-17T20:16:18.787Z,51.50
2023-02-17T20:18:46.464Z,51.30
2023-02-17T20:21:13.981Z,51.70
2023-02-17T20:23:40.676Z,51.40
2023-02-17T20:26:11.530Z,51.40
2023-02-17T20:28:38.369Z,51.80
2023-02-17T20:31:05.781Z,51.30
2023-02-17T20:33:32.671Z,51.50
2023-02-17T20:35:59.386Z,51.60
2023-02-17T20:38:26.056Z,51.60
2023-02-17T20:40:52.763Z,51.70
2023-02-17T20:43:20.642Z,51.50
2023-02-17T20:45:47.620Z,51.60
2023-02-17T20:48:14.423Z,51.70
2023-02-17T20:50:41.360Z,51.60
2023-02-17T20:53:08.133Z,51.70
2023-02-17T20:55:34.827Z,51.60
2023-02-17T20:58:01.578Z,51.50
2023-02-17T21:00:28.623Z,51.70
2023-02-17T21:02:55.689Z,51.60
2023-02-17T21:05:22.935Z,51.60
2023-02-17T21:07:49.969Z,51.70
2023-02-17T21:10:18.215Z,51.70
2023-02-17T21:12:45.318Z,51.60
2023-02-17T21:15:12.082Z,51.60
2023-02-17T21:17:38.860Z,51.70
2023-02-17T21:20:06.300Z,51.70
2023-02-17T21:22:33.084Z,51.70
2023-02-17T21:24:59.820Z,51.70
2023-02-17T21:27:27.052Z,51.80
2023-02-17T21:29:53.913Z,51.70
2023-02-17T21:32:20.720Z,51.80
2023-02-17T21:34:47.440Z,51.70
2023-02-17T21:37:14.230Z,51.60
2023-02-17T21:39:40.977Z,51.80
2023-02-17T21:42:07.918Z,51.60
2023-02-17T21:44:52.955Z,51.60
2023-02-17T21:47:20.050Z,51.70
2023-02-17T21:49:47.027Z,51.70
2023-02-17T21:52:13.863Z,51.70
2023-02-17T21:54:40.587Z,51.70
2023-02-17T21:57:07.559Z,51.50
2023-02-17T21:59:34.233Z,51.70
2023-02-17T22:02:00.956Z,51.60
2023-02-17T22:04:28.731Z,51.60
2023-02-17T22:06:55.461Z,51.70
2023-02-17T22:09:22.319Z,51.60
2023-02-17T22:11:50.059Z,51.70
2023-02-17T22:14:17.574Z,51.70
2023-02-17T22:16:44.436Z,51.70
2023-02-17T22:19:18.179Z,51.60
2023-02-17T22:21:45.259Z,51.70
2023-02-17T22:24:12.013Z,51.50
2023-02-17T22:26:38.744Z,51.60
2023-02-17T22:29:05.525Z,51.30
2023-02-17T22:31:32.286Z,51.50
2023-02-17T22:33:59.713Z,51.40
2023-02-17T22:36:27.540Z,51.40
2023-02-17T22:38:54.280Z,51.50
2023-02-17T22:41:21.830Z,51.40
2023-02-17T22:43:48.687Z,51.50
2023-02-17T22:46:18.574Z,51.30
2023-02-17T22:48:46.057Z,51.60
2023-02-17T22:51:13.971Z,51.50
2023-02-17T22:53:40.571Z,51.40
2023-02-17T22:56:07.736Z,51.60
2023-02-17T22:58:34.739Z,51.40
2023-02-17T23:01:02.226Z,51.60
2023-02-17T23:03:28.897Z,51.50
2023-02-17T23:05:59.260Z,51.40
2023-02-17T23:08:26.177Z,51.60
2023-02-17T23:10:52.745Z,51.40
2023-02-17T23:13:19.389Z,51.50
2023-02-17T23:15:46.001Z,51.40
2023-02-17T23:18:13.622Z,51.50
2023-02-17T23:20:41.157Z,51.60
2023-02-17T23:23:07.777Z,51.50
2023-02-17T23:25:34.457Z,51.40
2023-02-17T23:28:01.144Z,51.40
2023-02-17T23:30:27.940Z,51.40
2023-02-17T23:32:54.912Z,51.50
2023-02-17T23:35:22.239Z,51.50
2023-02-17T23:37:49.844Z,51.60
2023-02-17T23:40:16.486Z,51.70
2023-02-17T23:42:43.175Z,51.40
2023-02-17T23:45:09.954Z,51.70
2023-02-17T23:47:36.663Z,51.50
2023-02-17T23:50:03.579Z,51.50
2023-02-17T23:52:30.318Z,51.50
2023-02-17T23:54:57.049Z,51.50
2023-02-17T23:57:23.792Z,51.60
2023-02-17T23:59:50.548Z,51.40
